Time;durP1;ratioP1;P1;durP2;ratioP2;P2;SDS_P1;SDS_P2;PMS_P1;PMS_P2;Temp;Humidity;BMP_temperature;BMP_pressure;BME280_temperature;BME280_humidity;BME280_pressure;Samples;Min_cycle;Max_cycle;Signal;HPM_P1;HPM_P2
2023/09/16 00:01:41;;;;;;;10.85;5.13;;;16.70;99.90;;;;;;5069667;28;20036;-72
2023/09/16 00:04:08;;;;;;;8.52;5.13;;;16.60;99.90;;;;;;5069320;28;20021;-71
2023/09/16 00:06:34;;;;;;;10.80;4.88;;;16.60;99.90;;;;;;5070302;28;20043;-72
2023/09/16 00:09:00;;;;;;;10.02;5.10;;;16.50;99.90;;;;;;5070593;28;20028;-72
2023/09/16 00:11:26;;;;;;;14.43;8.77;;;16.50;99.90;;;;;;5070575;28;20035;-71
2023/09/16 00:13:51;;;;;;;13.20;6.32;;;16.50;99.90;;;;;;5074327;28;20454;-72
2023/09/16 00:16:17;;;;;;;11.38;5.75;;;16.50;99.90;;;;;;5073956;28;20043;-71
2023/09/16 00:18:43;;;;;;;12.35;5.97;;;16.50;99.90;;;;;;5074602;28;20207;-71
2023/09/16 00:21:10;;;;;;;9.80;5.10;;;16.50;99.90;;;;;;5074144;28;20507;-70
2023/09/16 00:23:36;;;;;;;11.70;5.15;;;16.50;99.90;;;;;;5074155;28;20090;-71
2023/09/16 00:26:03;;;;;;;14.00;5.20;;;16.50;99.90;;;;;;5074064;28;20120;-71
2023/09/16 00:28:29;;;;;;;10.43;5.03;;;16.50;99.90;;;;;;5073104;28;20454;-71
2023/09/16 00:30:55;;;;;;;8.63;5.38;;;16.50;99.90;;;;;;5073856;28;20024;-71
2023/09/16 00:33:21;;;;;;;10.52;5.50;;;16.40;99.90;;;;;;5074189;28;20035;-71
2023/09/16 00:35:46;;;;;;;12.48;5.70;;;16.40;99.90;;;;;;5073682;28;20024;-72
2023/09/16 00:38:15;;;;;;;16.25;5.63;;;16.40;99.90;;;;;;5073697;28;20039;-72
2023/09/16 00:40:41;;;;;;;11.38;4.88;;;16.30;99.90;;;;;;5073779;28;20040;-72
2023/09/16 00:43:06;;;;;;;10.00;4.82;;;16.30;99.90;;;;;;5074547;28;20439;-71
2023/09/16 00:45:33;;;;;;;9.88;5.20;;;16.20;99.90;;;;;;5093382;28;20028;-72
2023/09/16 00:47:59;;;;;;;9.15;5.30;;;16.20;99.90;;;;;;5093925;28;20027;-72
2023/09/16 00:50:25;;;;;;;15.82;5.80;;;16.20;99.90;;;;;;5093639;28;20080;-71
2023/09/16 00:52:54;;;;;;;12.57;5.78;;;16.30;99.90;;;;;;5093747;28;20020;-72
2023/09/16 00:55:21;;;;;;;11.57;6.03;;;16.20;99.90;;;;;;5092567;28;20135;-70
2023/09/16 00:57:48;;;;;;;11.52;5.63;;;16.20;99.90;;;;;;5093762;28;20111;-71
2023/09/16 01:00:16;;;;;;;7.93;5.32;;;16.20;99.90;;;;;;5093598;28;20036;-71
2023/09/16 01:02:43;;;;;;;10.13;5.25;;;16.10;99.90;;;;;;5093599;28;20040;-71
2023/09/16 01:05:15;;;;;;;10.20;5.05;;;16.00;99.90;;;;;;5093747;28;20028;-71
2023/09/16 01:07:41;;;;;;;7.57;4.80;;;16.10;99.90;;;;;;5092102;28;20453;-71
2023/09/16 01:10:10;;;;;;;11.02;5.05;;;16.10;99.90;;;;;;5093460;28;20020;-72
2023/09/16 01:12:37;;;;;;;11.77;4.68;;;16.00;99.90;;;;;;5093364;28;20458;-72
2023/09/16 01:15:06;;;;;;;9.55;5.57;;;15.90;99.90;;;;;;5093206;28;20040;-71
2023/09/16 01:17:36;;;;;;;11.55;5.30;;;15.90;99.90;;;;;;5092245;28;20024;-72
2023/09/16 01:20:06;;;;;;;7.45;5.25;;;15.80;99.90;;;;;;5093219;28;20020;-70
2023/09/16 01:22:33;;;;;;;9.30;5.65;;;15.90;99.90;;;;;;5092852;28;20020;-71
2023/09/16 01:25:03;;;;;;;8.47;5.07;;;15.90;99.90;;;;;;5093148;28;20104;-72
2023/09/16 01:27:29;;;;;;;8.90;5.32;;;15.80;99.90;;;;;;5093012;28;20026;-72
2023/09/16 01:29:54;;;;;;;10.10;5.47;;;15.80;99.90;;;;;;5093027;28;20027;-72
2023/09/16 01:32:27;;;;;;;8.25;4.95;;;15.70;99.90;;;;;;5093204;28;20024;-72
2023/09/16 01:34:54;;;;;;;13.95;5.80;;;15.60;99.90;;;;;;5092128;28;20382;-71
2023/09/16 01:37:23;;;;;;;7.70;4.70;;;15.70;99.90;;;;;;5072687;28;20362;-70
2023/09/16 01:39:57;;;;;;;10.63;5.28;;;15.70;99.90;;;;;;5072557;28;20039;-71
2023/09/16 01:42:26;;;;;;;12.02;5.28;;;15.70;99.90;;;;;;5072535;28;20032;-70
2023/09/16 01:44:53;;;;;;;9.50;5.47;;;15.60;99.90;;;;;;5071446;28;20408;-72
2023/09/16 01:47:19;;;;;;;9.85;5.03;;;15.70;99.90;;;;;;5072413;28;20059;-72
2023/09/16 01:49:45;;;;;;;14.25;5.30;;;15.70;99.90;;;;;;5072337;28;20064;-73
2023/09/16 01:52:11;;;;;;;9.30;5.55;;;15.70;99.90;;;;;;5071302;28;20016;-73
2023/09/16 01:54:37;;;;;;;8.75;5.00;;;15.70;99.90;;;;;;5071522;28;20425;-72
2023/09/16 01:57:03;;;;;;;11.88;5.40;;;15.70;99.90;;;;;;5072377;28;20311;-72
2023/09/16 01:59:28;;;;;;;10.88;5.18;;;15.60;99.90;;;;;;5072139;28;20032;-72
2023/09/16 02:01:54;;;;;;;8.63;5.55;;;15.60;99.90;;;;;;5072235;28;20021;-72
2023/09/16 02:04:19;;;;;;;10.70;5.15;;;15.50;99.90;;;;;;5072571;28;20035;-71
2023/09/16 02:06:46;;;;;;;10.88;5.32;;;15.60;99.90;;;;;;5072313;28;20157;-73
2023/09/16 02:09:15;;;;;;;11.80;5.70;;;15.60;99.90;;;;;;5072269;28;20036;-74
2023/09/16 02:11:41;;;;;;;10.77;5.63;;;15.60;99.90;;;;;;5072163;28;20047;-71
2023/09/16 02:14:14;;;;;;;11.88;5.68;;;15.60;99.90;;;;;;5072467;28;20020;-73
2023/09/16 02:16:40;;;;;;;7.55;4.65;;;15.60;99.90;;;;;;5070919;28;20044;-72
2023/09/16 02:19:06;;;;;;;11.85;5.68;;;15.70;99.90;;;;;;5071880;28;20020;-71
2023/09/16 02:21:32;;;;;;;13.48;6.18;;;15.70;99.90;;;;;;5070897;28;20108;-71
2023/09/16 02:23:58;;;;;;;9.15;4.68;;;15.60;99.90;;;;;;5070678;28;20107;-71
2023/09/16 02:26:24;;;;;;;10.38;5.15;;;15.60;99.90;;;;;;5070706;28;20086;-72
2023/09/16 02:28:49;;;;;;;8.80;5.18;;;15.70;99.90;;;;;;5071854;28;20021;-71
2023/09/16 02:31:16;;;;;;;9.73;5.07;;;15.60;99.90;;;;;;5071737;28;20516;-72
2023/09/16 02:33:41;;;;;;;10.15;5.63;;;15.50;99.90;;;;;;5072058;28;20016;-72
2023/09/16 02:36:07;;;;;;;10.05;5.47;;;15.60;99.90;;;;;;5071620;28;20089;-72
2023/09/16 02:38:33;;;;;;;11.88;5.50;;;15.70;99.90;;;;;;5071477;28;20028;-73
2023/09/16 02:41:03;;;;;;;8.20;4.57;;;15.60;99.90;;;;;;5071693;28;20429;-73
2023/09/16 02:43:29;;;;;;;10.65;5.53;;;15.70;99.90;;;;;;5071512;28;20320;-73
2023/09/16 02:45:58;;;;;;;9.50;5.40;;;15.70;99.90;;;;;;5071606;28;20081;-73
2023/09/16 02:48:24;;;;;;;8.70;5.20;;;15.60;99.90;;;;;;5071505;28;20032;-73
2023/09/16 02:50:49;;;;;;;8.90;5.13;;;15.70;99.90;;;;;;5071430;28;20115;-72
2023/09/16 02:53:17;;;;;;;9.52;5.93;;;15.60;99.90;;;;;;5071615;28;20081;-73
2023/09/16 02:55:43;;;;;;;11.65;5.20;;;15.70;99.90;;;;;;5071483;28;20036;-72
2023/09/16 02:58:08;;;;;;;15.75;5.95;;;15.70;99.90;;;;;;5071345;28;20050;-73
2023/09/16 03:00:34;;;;;;;11.43;6.18;;;15.70;99.90;;;;;;5071688;28;20013;-72
2023/09/16 03:03:00;;;;;;;11.55;5.32;;;15.70;99.90;;;;;;5071340;28;20024;-73
2023/09/16 03:05:25;;;;;;;10.45;5.07;;;15.70;99.90;;;;;;5070213;28;20052;-72
2023/09/16 03:07:51;;;;;;;9.40;5.55;;;15.60;99.90;;;;;;5069971;28;20079;-71
2023/09/16 03:10:17;;;;;;;12.95;5.90;;;15.50;99.90;;;;;;5071196;28;20032;-72
2023/09/16 03:12:43;;;;;;;9.48;4.80;;;15.50;99.90;;;;;;5071268;28;20363;-72
2023/09/16 03:15:11;;;;;;;11.75;6.03;;;15.60;99.90;;;;;;5071048;28;20027;-72
2023/09/16 03:17:36;;;;;;;9.93;5.88;;;15.60;99.90;;;;;;5071217;28;20090;-72
2023/09/16 03:20:02;;;;;;;11.82;5.65;;;15.50;99.90;;;;;;5071392;28;20032;-72
2023/09/16 03:22:28;;;;;;;11.80;5.97;;;15.50;99.90;;;;;;5071347;28;20039;-72
2023/09/16 03:24:54;;;;;;;9.98;6.45;;;15.50;99.90;;;;;;5071137;28;20020;-72
2023/09/16 03:27:20;;;;;;;10.10;6.13;;;15.50;99.90;;;;;;5069954;28;20469;-73
2023/09/16 03:29:45;;;;;;;9.65;5.97;;;15.40;99.90;;;;;;5071273;28;20034;-72
2023/09/16 03:32:11;;;;;;;11.00;6.20;;;15.50;99.90;;;;;;5069898;28;20027;-72
2023/09/16 03:34:37;;;;;;;12.88;5.78;;;15.40;99.90;;;;;;5071012;28;20040;-72
2023/09/16 03:37:02;;;;;;;13.85;6.47;;;15.40;99.90;;;;;;5070895;28;20154;-72
2023/09/16 03:39:28;;;;;;;11.63;6.13;;;15.40;99.90;;;;;;5070920;28;20048;-71
2023/09/16 03:41:55;;;;;;;10.07;6.20;;;15.40;99.90;;;;;;5071030;28;20025;-72
2023/09/16 03:44:20;;;;;;;10.95;5.95;;;15.40;99.90;;;;;;5070752;28;20044;-72
2023/09/16 03:46:47;;;;;;;10.88;6.00;;;15.40;99.90;;;;;;5073001;28;20404;-71
2023/09/16 03:49:13;;;;;;;9.00;5.57;;;15.30;99.90;;;;;;5075054;28;20028;-72
2023/09/16 03:51:39;;;;;;;15.43;5.95;;;15.30;99.90;;;;;;5074865;28;20029;-73
2023/09/16 03:54:06;;;;;;;9.88;6.13;;;15.30;99.90;;;;;;5074771;28;20504;-70
2023/09/16 03:56:32;;;;;;;10.68;5.90;;;15.20;99.90;;;;;;5074527;28;20361;-72
2023/09/16 03:58:58;;;;;;;9.00;5.60;;;15.20;99.90;;;;;;5074617;28;20115;-73
2023/09/16 04:01:24;;;;;;;10.95;5.97;;;15.20;99.90;;;;;;5074774;28;20446;-70
2023/09/16 04:03:50;;;;;;;10.95;6.63;;;15.20;99.90;;;;;;5074306;28;20039;-72
2023/09/16 04:06:15;;;;;;;10.48;6.40;;;15.30;99.90;;;;;;5074439;28;20025;-72
2023/09/16 04:08:41;;;;;;;9.80;5.93;;;15.30;99.90;;;;;;5074275;28;20537;-72
2023/09/16 04:11:07;;;;;;;12.15;5.95;;;15.30;99.90;;;;;;5074469;28;20021;-73
2023/09/16 04:13:33;;;;;;;13.55;5.70;;;15.30;99.90;;;;;;5074400;28;20059;-72
2023/09/16 04:15:58;;;;;;;10.57;5.90;;;15.30;99.90;;;;;;5073210;28;20064;-72
2023/09/16 04:18:24;;;;;;;11.57;6.68;;;15.20;99.90;;;;;;5073101;28;20058;-71
2023/09/16 04:20:55;;;;;;;10.63;6.10;;;15.30;99.90;;;;;;5074119;28;20078;-72
2023/09/16 04:23:21;;;;;;;10.43;6.15;;;15.30;99.90;;;;;;5072854;28;20028;-73
2023/09/16 04:25:53;;;;;;;11.82;6.25;;;15.20;99.90;;;;;;5074302;28;20012;-73
2023/09/16 04:28:18;;;;;;;11.57;6.82;;;15.20;99.90;;;;;;5074093;28;20033;-72
2023/09/16 04:30:49;;;;;;;10.60;6.15;;;15.20;99.90;;;;;;5074002;28;20035;-72
2023/09/16 04:33:16;;;;;;;12.43;6.18;;;15.20;99.90;;;;;;5073999;28;20024;-72
2023/09/16 04:35:46;;;;;;;13.60;5.82;;;15.20;99.90;;;;;;5073798;28;20385;-71
2023/09/16 04:38:16;;;;;;;12.85;6.18;;;15.20;99.90;;;;;;5073881;28;20025;-71
2023/09/16 04:40:43;;;;;;;11.20;6.50;;;15.20;99.90;;;;;;5073809;28;20028;-72
2023/09/16 04:43:08;;;;;;;9.52;5.85;;;15.20;99.90;;;;;;5073830;28;20021;-71
2023/09/16 04:45:34;;;;;;;13.40;6.53;;;15.10;99.90;;;;;;5072743;28;20511;-72
2023/09/16 04:48:00;;;;;;;13.20;6.50;;;15.10;99.90;;;;;;5073626;28;20017;-72
2023/09/16 04:50:28;;;;;;;12.00;6.38;;;15.10;99.90;;;;;;5072754;28;20063;-72
2023/09/16 04:52:54;;;;;;;11.70;6.25;;;15.10;99.90;;;;;;5073552;28;20043;-73
2023/09/16 04:55:21;;;;;;;11.02;6.85;;;15.10;99.90;;;;;;5073407;28;20032;-73
2023/09/16 04:57:46;;;;;;;12.68;6.22;;;15.20;99.90;;;;;;5072867;28;20107;-73
2023/09/16 05:00:12;;;;;;;10.57;6.22;;;15.20;99.90;;;;;;5073469;28;20103;-72
2023/09/16 05:02:38;;;;;;;10.77;6.32;;;15.20;99.90;;;;;;5073340;28;20039;-72
2023/09/16 05:05:04;;;;;;;14.10;6.43;;;15.20;99.90;;;;;;5073297;28;20024;-72
2023/09/16 05:07:29;;;;;;;13.02;6.55;;;15.20;99.90;;;;;;5071986;28;20186;-72
2023/09/16 05:09:56;;;;;;;15.35;6.93;;;15.30;99.90;;;;;;5073321;28;20102;-71
2023/09/16 05:12:22;;;;;;;8.85;5.82;;;15.20;99.90;;;;;;5072244;28;20247;-72
2023/09/16 05:14:49;;;;;;;12.13;5.93;;;15.30;99.90;;;;;;5073289;28;20138;-71
2023/09/16 05:17:15;;;;;;;15.38;7.13;;;15.30;99.90;;;;;;5073061;28;20378;-72
2023/09/16 05:19:40;;;;;;;10.90;6.47;;;15.30;99.90;;;;;;5073315;28;20020;-73
2023/09/16 05:22:06;;;;;;;10.00;5.85;;;15.30;99.90;;;;;;5072923;28;20028;-72
2023/09/16 05:24:32;;;;;;;14.57;6.40;;;15.30;99.90;;;;;;5072818;28;20017;-71
2023/09/16 05:26:57;;;;;;;11.88;6.50;;;15.30;99.90;;;;;;5072176;28;20143;-70
2023/09/16 05:29:23;;;;;;;15.88;6.50;;;15.20;99.90;;;;;;5071687;28;20036;-71
2023/09/16 05:31:50;;;;;;;8.25;5.95;;;15.30;99.90;;;;;;5071646;28;20035;-72
2023/09/16 05:34:16;;;;;;;8.90;5.88;;;15.30;99.90;;;;;;5071749;28;20127;-72
2023/09/16 05:36:41;;;;;;;12.45;6.75;;;15.30;99.90;;;;;;5071614;28;20457;-72
2023/09/16 05:39:07;;;;;;;9.32;6.22;;;15.30;99.90;;;;;;5071760;28;20423;-72
2023/09/16 05:41:33;;;;;;;13.15;6.97;;;15.30;99.90;;;;;;5072983;28;20035;-73
2023/09/16 05:43:58;;;;;;;9.55;6.15;;;15.40;99.90;;;;;;5072522;28;20028;-72
2023/09/16 05:46:24;;;;;;;11.70;6.20;;;15.30;99.90;;;;;;5072800;28;20032;-71
2023/09/16 05:48:50;;;;;;;11.10;6.75;;;15.40;99.90;;;;;;5071377;28;20537;-72
2023/09/16 05:51:15;;;;;;;11.48;7.05;;;15.30;99.90;;;;;;5072596;28;20024;-72
2023/09/16 05:53:42;;;;;;;10.23;6.18;;;15.40;99.90;;;;;;5071397;28;20365;-72
2023/09/16 05:56:08;;;;;;;11.15;6.72;;;15.40;99.90;;;;;;5072758;28;20763;-72
2023/09/16 05:58:35;;;;;;;15.73;6.82;;;15.40;99.90;;;;;;5072480;28;20650;-70
2023/09/16 06:01:00;;;;;;;13.02;6.60;;;15.50;99.90;;;;;;5071142;28;20111;-71
2023/09/16 06:03:27;;;;;;;13.48;6.57;;;15.60;99.90;;;;;;5072325;28;20120;-71
2023/09/16 06:05:59;;;;;;;11.65;6.18;;;15.60;99.90;;;;;;5072246;28;20021;-73
2023/09/16 06:08:25;;;;;;;13.13;6.22;;;15.70;99.90;;;;;;5072675;28;20048;-77
2023/09/16 06:10:51;;;;;;;12.32;6.57;;;15.70;99.90;;;;;;5071428;28;20056;-71
2023/09/16 06:13:16;;;;;;;14.30;7.35;;;15.70;99.90;;;;;;5072466;28;20048;-73
2023/09/16 06:15:43;;;;;;;11.88;6.22;;;15.90;99.90;;;;;;5071121;28;20465;-73
2023/09/16 06:18:09;;;;;;;9.85;6.45;;;15.80;99.90;;;;;;5070865;28;20029;-72
2023/09/16 06:20:35;;;;;;;15.15;6.80;;;15.80;99.90;;;;;;5071899;28;20017;-72
2023/09/16 06:23:03;;;;;;;8.95;6.60;;;15.80;99.90;;;;;;5071934;28;20035;-72
2023/09/16 06:25:30;;;;;;;11.82;6.35;;;15.90;99.90;;;;;;5071622;28;20473;-70
2023/09/16 06:27:58;;;;;;;17.42;6.75;;;16.00;99.90;;;;;;5071522;28;20115;-73
2023/09/16 06:30:24;;;;;;;11.35;6.60;;;16.10;99.90;;;;;;5071849;28;20052;-71
2023/09/16 06:32:52;;;;;;;10.07;6.63;;;16.20;99.90;;;;;;5071278;28;20025;-70
2023/09/16 06:35:19;;;;;;;11.23;6.50;;;16.20;99.90;;;;;;5071405;28;20047;-70
2023/09/16 06:37:44;;;;;;;9.90;5.75;;;16.30;99.90;;;;;;5071197;28;20040;-70
2023/09/16 06:40:10;;;;;;;11.30;5.97;;;16.40;99.90;;;;;;5070610;28;20017;-72
2023/09/16 06:42:36;;;;;;;9.32;6.15;;;16.50;99.90;;;;;;5071709;28;20021;-70
2023/09/16 06:45:02;;;;;;;11.43;6.78;;;16.50;99.90;;;;;;5071185;28;20122;-70
2023/09/16 06:47:28;;;;;;;12.15;6.50;;;16.60;99.90;;;;;;5071307;28;20138;-71
2023/09/16 06:49:55;;;;;;;11.68;5.55;;;16.70;99.90;;;;;;5071423;28;20096;-70
2023/09/16 06:52:22;;;;;;;9.75;5.72;;;16.90;99.90;;;;;;5071160;28;20336;-70
2023/09/16 06:54:50;;;;;;;12.88;6.03;;;16.90;99.90;;;;;;5070132;28;20024;-70
2023/09/16 06:57:16;;;;;;;10.80;5.32;;;17.10;99.90;;;;;;5071081;28;20039;-70
2023/09/16 06:59:49;;;;;;;10.23;5.45;;;17.20;99.90;;;;;;5071665;28;20020;-71
2023/09/16 07:02:16;;;;;;;10.40;5.18;;;17.20;99.90;;;;;;5071287;28;20300;-70
2023/09/16 07:04:42;;;;;;;8.95;5.30;;;17.30;99.90;;;;;;5071024;28;20078;-70
2023/09/16 07:07:11;;;;;;;8.35;5.85;;;17.30;99.90;;;;;;5070996;28;20556;-69
2023/09/16 07:09:37;;;;;;;12.15;5.88;;;17.50;99.90;;;;;;5070836;28;20059;-73
2023/09/16 07:12:05;;;;;;;9.02;5.82;;;17.60;99.90;;;;;;5069960;28;20033;-73
2023/09/16 07:14:31;;;;;;;8.07;5.50;;;17.60;99.90;;;;;;5070966;28;20145;-73
2023/09/16 07:16:57;;;;;;;13.68;5.53;;;17.70;99.90;;;;;;5070836;28;20528;-77
2023/09/16 07:19:22;;;;;;;13.05;5.70;;;17.70;99.90;;;;;;5069915;28;20032;-74
2023/09/16 07:21:48;;;;;;;13.93;6.00;;;17.90;99.90;;;;;;5075447;28;20111;-72
2023/09/16 07:24:14;;;;;;;11.07;5.65;;;18.00;99.90;;;;;;5077544;28;20028;-72
2023/09/16 07:26:43;;;;;;;8.25;4.95;;;18.00;99.90;;;;;;5077412;28;20141;-72
2023/09/16 07:29:10;;;;;;;8.15;5.00;;;18.20;99.90;;;;;;5077755;28;20024;-76
2023/09/16 07:31:36;;;;;;;10.07;4.93;;;18.30;99.90;;;;;;5077835;28;20391;-73
2023/09/16 07:34:02;;;;;;;13.65;4.97;;;18.30;99.90;;;;;;5077197;28;20086;-72
2023/09/16 07:36:28;;;;;;;15.60;5.40;;;18.40;99.90;;;;;;5077439;28;20028;-72
2023/09/16 07:38:53;;;;;;;11.93;5.60;;;18.40;99.90;;;;;;5077345;28;20553;-72
2023/09/16 07:41:19;;;;;;;7.97;4.60;;;18.50;99.90;;;;;;5077542;28;20354;-74
2023/09/16 07:43:45;;;;;;;12.50;5.00;;;18.50;99.90;;;;;;5077333;28;20112;-72
2023/09/16 07:46:11;;;;;;;9.15;4.18;;;18.50;99.90;;;;;;5075917;28;20024;-75
2023/09/16 07:48:36;;;;;;;7.43;3.88;;;18.60;99.90;;;;;;5075955;28;20032;-74
2023/09/16 07:51:02;;;;;;;7.85;4.18;;;18.60;99.90;;;;;;5077529;28;20035;-72
2023/09/16 07:53:28;;;;;;;8.75;4.35;;;18.70;99.90;;;;;;5077108;28;20033;-72
2023/09/16 07:55:53;;;;;;;7.03;4.38;;;18.80;99.90;;;;;;5077356;28;20032;-73
2023/09/16 07:58:19;;;;;;;6.45;4.05;;;18.80;99.90;;;;;;5076870;28;20025;-70
2023/09/16 08:00:45;;;;;;;13.85;5.25;;;19.00;99.90;;;;;;5077138;28;20025;-71
2023/09/16 08:03:10;;;;;;;10.93;4.95;;;19.00;99.90;;;;;;5077367;28;20035;-71
2023/09/16 08:05:36;;;;;;;8.05;5.15;;;19.10;99.90;;;;;;5076001;28;20033;-73
2023/09/16 08:08:02;;;;;;;9.75;4.82;;;19.20;99.90;;;;;;5076804;28;20041;-77
2023/09/16 08:10:28;;;;;;;8.90;4.07;;;19.20;99.90;;;;;;5077326;28;20590;-78
2023/09/16 08:12:54;;;;;;;14.20;6.22;;;19.30;99.90;;;;;;5077113;28;20033;-73
2023/09/16 08:15:19;;;;;;;15.52;5.85;;;19.40;99.90;;;;;;5077547;28;20017;-73
2023/09/16 08:17:45;;;;;;;9.73;4.30;;;19.40;99.90;;;;;;5076799;28;20120;-75
2023/09/16 08:20:11;;;;;;;123.82;90.90;;;19.50;99.90;;;;;;5076996;28;20020;-80
2023/09/16 08:22:36;;;;;;;10.05;6.28;;;19.70;99.90;;;;;;5076732;28;20487;-74
2023/09/16 08:25:03;;;;;;;8.70;5.07;;;19.80;99.90;;;;;;5085748;28;20085;-87
2023/09/16 08:27:29;;;;;;;6.75;4.82;;;20.20;99.90;;;;;;5097416;28;20441;-71
2023/09/16 08:29:54;;;;;;;9.95;4.68;;;20.70;99.90;;;;;;5097433;28;20112;-72
2023/09/16 08:32:22;;;;;;;8.13;4.40;;;21.20;99.90;;;;;;5095513;28;20439;-73
2023/09/16 08:34:50;;;;;;;7.75;4.60;;;21.60;99.80;;;;;;5094023;28;20034;-74
2023/09/16 08:37:16;;;;;;;;;;;22.00;99.20;;;;;;5094563;28;20058;-75
2023/09/16 08:39:42;;;;;;;7.18;3.72;;;22.50;98.50;;;;;;5093801;28;20338;-76
2023/09/16 08:42:21;;;;;;;6.53;3.70;;;22.90;97.90;;;;;;5094368;28;20111;-72
2023/09/16 08:44:51;;;;;;;10.10;4.45;;;23.30;96.90;;;;;;5094239;28;20017;-79
2023/09/16 08:47:27;;;;;;;8.38;3.30;;;24.00;97.20;;;;;;5093778;28;20084;-76
2023/09/16 08:49:56;;;;;;;25.80;6.72;;;24.50;95.10;;;;;;5093524;28;20024;-77
2023/09/16 08:52:25;;;;;;;21.33;9.27;;;24.90;95.40;;;;;;5092570;28;20049;-77
2023/09/16 08:54:51;;;;;;;11.35;3.85;;;25.50;94.60;;;;;;5093412;28;20031;-76
2023/09/16 08:57:18;;;;;;;66.70;48.15;;;25.70;93.90;;;;;;5092381;28;20354;-79
2023/09/16 08:59:44;;;;;;;5.55;2.90;;;26.10;93.60;;;;;;5093588;28;20047;-80
2023/09/16 09:02:11;;;;;;;11.68;4.55;;;26.40;92.60;;;;;;5093636;28;20028;-77
2023/09/16 09:04:38;;;;;;;9.18;4.10;;;26.70;91.70;;;;;;5093563;28;20028;-76
2023/09/16 09:07:05;;;;;;;5.97;3.45;;;27.00;91.20;;;;;;5093330;28;20102;-72
2023/09/16 09:09:31;;;;;;;7.03;3.60;;;27.60;90.20;;;;;;5095561;28;20032;-75
2023/09/16 09:11:58;;;;;;;7.07;3.47;;;27.90;90.00;;;;;;5093770;28;20513;-76
2023/09/16 09:14:24;;;;;;;5.47;3.27;;;28.30;90.30;;;;;;5097933;28;20032;-74
2023/09/16 09:16:51;;;;;;;5.28;2.92;;;28.60;85.90;;;;;;5097856;28;20256;-70
2023/09/16 09:19:20;;;;;;;6.85;3.00;;;28.80;86.60;;;;;;5097236;28;20024;-84
2023/09/16 09:21:47;;;;;;;3.60;2.33;;;28.90;82.40;;;;;;5094635;28;20035;-83
2023/09/16 09:24:13;;;;;;;6.00;3.00;;;29.20;83.80;;;;;;5092105;28;20024;-81
2023/09/16 09:26:38;;;;;;;6.90;3.15;;;29.50;82.60;;;;;;5093180;28;20097;-85
2023/09/16 09:29:09;;;;;;;12.52;3.33;;;29.60;80.00;;;;;;5093850;28;20046;-80
2023/09/16 09:31:35;;;;;;;6.03;2.67;;;29.90;80.80;;;;;;5092844;28;20031;-85
2023/09/16 09:34:01;;;;;;;13.98;3.15;;;29.90;78.80;;;;;;5092752;28;20039;-88
2023/09/16 09:36:30;;;;;;;68.95;49.08;;;30.30;79.80;;;;;;5092715;28;20035;-82
2023/09/16 09:38:57;;;;;;;7.93;4.20;;;30.50;81.30;;;;;;5092583;28;20346;-84
2023/09/16 09:41:23;;;;;;;9.85;3.22;;;31.10;78.20;;;;;;5093049;28;20049;-82
2023/09/16 09:43:52;;;;;;;7.95;4.07;;;31.60;78.80;;;;;;5092657;28;20040;-84
2023/09/16 09:46:20;;;;;;;8.63;3.65;;;31.20;74.10;;;;;;5092823;28;20020;-81
2023/09/16 09:48:46;;;;;;;6.65;3.42;;;31.40;76.40;;;;;;5092489;28;20300;-80
2023/09/16 09:51:16;;;;;;;7.90;3.63;;;31.80;74.00;;;;;;5091841;28;20086;-79
2023/09/16 09:53:43;;;;;;;10.43;3.92;;;31.30;73.20;;;;;;5092591;28;20016;-82
2023/09/16 09:56:11;;;;;;;5.72;3.67;;;31.40;72.90;;;;;;5091214;28;20430;-80
2023/09/16 09:58:36;;;;;;;8.90;4.38;;;31.20;74.90;;;;;;5092455;28;20028;-82
2023/09/16 10:01:02;;;;;;;7.65;5.32;;;32.00;74.10;;;;;;5093695;28;20157;-80
2023/09/16 10:03:28;;;;;;;10.75;4.47;;;33.00;71.30;;;;;;5092701;28;20571;-80
2023/09/16 10:05:55;;;;;;;8.15;3.50;;;33.70;71.80;;;;;;5092612;28;20020;-80
2023/09/16 10:08:21;;;;;;;5.10;3.38;;;33.80;67.50;;;;;;5090780;28;20058;-79
2023/09/16 10:10:47;;;;;;;9.40;3.40;;;32.90;69.00;;;;;;5092263;28;20054;-80
2023/09/16 10:13:14;;;;;;;5.75;3.70;;;33.90;70.30;;;;;;5092341;28;20034;-82
2023/09/16 10:15:40;;;;;;;5.57;3.58;;;33.90;67.50;;;;;;5091926;28;20024;-81
2023/09/16 10:18:07;;;;;;;9.30;3.50;;;34.20;66.20;;;;;;5092100;28;20032;-82
2023/09/16 10:20:46;;;;;;;5.68;3.38;;;34.80;65.90;;;;;;5092161;28;20020;-81
2023/09/16 10:23:11;;;;;;;4.53;3.03;;;36.00;64.50;;;;;;5092240;28;20046;-80
2023/09/16 10:25:37;;;;;;;5.28;2.88;;;36.30;61.10;;;;;;5090573;28;20093;-84
2023/09/16 10:28:05;;;;;;;6.15;3.22;;;36.00;60.70;;;;;;5091810;28;20024;-81
2023/09/16 10:30:35;;;;;;;5.93;2.75;;;36.60;60.80;;;;;;5091975;28;20411;-83
2023/09/16 10:33:05;;;;;;;7.97;3.15;;;37.10;59.10;;;;;;5090956;28;20039;-84
2023/09/16 10:35:33;;;;;;;7.30;3.17;;;37.60;58.40;;;;;;5090598;28;20028;-77
2023/09/16 10:38:00;;;;;;;;;;;36.80;55.10;;;;;;5091942;28;20383;-77
2023/09/16 10:40:26;;;;;;;5.30;3.00;;;36.60;55.20;;;;;;5091731;28;19903;-73
2023/09/16 10:42:53;;;;;;;5.03;2.72;;;36.60;55.00;;;;;;5091513;28;20080;-74
2023/09/16 10:45:19;;;;;;;6.90;3.22;;;36.50;54.50;;;;;;5091252;28;20107;-76
2023/09/16 10:47:48;;;;;;;4.60;2.30;;;37.00;55.80;;;;;;5091642;28;20595;-74
2023/09/16 10:50:14;;;;;;;3.45;2.33;;;37.90;53.00;;;;;;5091427;28;20744;-75
2023/09/16 10:52:50;;;;;;;7.07;2.88;;;37.90;50.80;;;;;;5091296;28;20354;-75
2023/09/16 10:55:37;;;;;;;3.70;2.55;;;37.80;51.70;;;;;;5090949;28;20144;-75
2023/09/16 10:58:16;;;;;;;;;;;37.90;50.60;;;;;;5091869;28;20047;-76
2023/09/16 11:00:48;;;;;;;4.65;2.85;;;36.80;51.20;;;;;;5089948;28;20291;-76
2023/09/16 11:03:15;;;;;;;5.15;2.88;;;37.70;51.90;;;;;;5090728;28;20024;-77
2023/09/16 11:05:41;;;;;;;6.80;3.65;;;37.50;51.40;;;;;;5091094;28;20030;-75
2023/09/16 11:08:07;;;;;;;9.18;2.95;;;37.60;50.90;;;;;;5090434;28;20125;-76
2023/09/16 11:10:33;;;;;;;8.10;3.65;;;38.60;51.70;;;;;;5090851;28;20020;-77
2023/09/16 11:13:00;;;;;;;8.98;2.97;;;39.40;50.30;;;;;;5090582;28;20024;-74
2023/09/16 11:15:33;;;;;;;3.53;2.65;;;39.80;48.40;;;;;;5091103;28;20028;-73
2023/09/16 11:18:03;;;;;;;6.57;3.03;;;39.80;47.90;;;;;;5089779;28;20093;-74
2023/09/16 11:20:32;;;;;;;4.72;2.85;;;38.50;47.90;;;;;;5091104;28;20527;-70
2023/09/16 11:23:05;;;;;;;5.07;2.50;;;37.00;49.90;;;;;;5091247;28;20020;-69
2023/09/16 11:25:44;;;;;;;4.82;3.00;;;37.40;48.80;;;;;;5090967;28;20046;-72
2023/09/16 11:28:16;;;;;;;7.57;3.22;;;37.70;49.70;;;;;;5090521;28;20426;-75
2023/09/16 11:31:02;;;;;;;3.65;2.60;;;37.50;49.20;;;;;;5090750;28;20020;-77
2023/09/16 11:33:32;;;;;;;3.67;2.40;;;35.70;50.30;;;;;;5090459;28;20047;-80
2023/09/16 11:36:10;;;;;;;7.15;5.05;;;35.10;52.70;;;;;;5090645;28;20028;-77
2023/09/16 11:38:37;;;;;;;4.80;2.72;;;34.00;53.70;;;;;;5090352;28;20072;-76
2023/09/16 11:41:10;;;;;;;6.57;2.80;;;33.90;53.60;;;;;;5090534;28;20012;-79
2023/09/16 11:43:37;;;;;;;5.90;2.70;;;33.70;54.90;;;;;;5089286;28;20497;-79
2023/09/16 11:46:03;;;;;;;3.80;2.50;;;33.20;54.60;;;;;;5090299;28;20469;-79
2023/09/16 11:48:56;;;;;;;4.63;2.75;;;32.90;54.80;;;;;;5090415;28;20036;-77
2023/09/16 11:51:24;;;;;;;5.88;3.00;;;32.80;55.50;;;;;;5090252;28;20093;-80
2023/09/16 11:53:53;;;;;;;9.00;2.92;;;32.40;56.90;;;;;;5090384;28;20116;-78
2023/09/16 11:56:23;;;;;;;3.70;2.35;;;32.00;58.60;;;;;;5089429;28;20318;-73
2023/09/16 11:58:49;;;;;;;8.45;2.55;;;31.60;56.80;;;;;;5090436;28;20028;-83
2023/09/16 12:01:28;;;;;;;6.38;2.40;;;30.90;58.30;;;;;;5090618;28;20415;-76
2023/09/16 12:03:56;;;;;;;3.25;2.20;;;30.10;58.80;;;;;;5090275;28;20361;-78
2023/09/16 12:06:25;;;;;;;4.47;2.63;;;29.80;59.30;;;;;;5090180;28;20020;-74
2023/09/16 12:08:53;;;;;;;3.72;2.40;;;29.70;59.60;;;;;;5092496;28;20048;-71
2023/09/16 12:11:18;;;;;;;;;;;29.60;60.00;;;;;;5094748;28;20103;-75
2023/09/16 12:13:44;;;;;;;5.88;2.83;;;29.40;60.50;;;;;;5094214;28;20068;-74
2023/09/16 12:16:10;;;;;;;3.50;2.35;;;29.20;59.50;;;;;;5093973;28;20028;-71
2023/09/16 12:18:36;;;;;;;4.18;2.55;;;29.20;59.90;;;;;;5093290;28;20039;-73
2023/09/16 12:21:04;;;;;;;5.60;2.80;;;29.20;60.00;;;;;;5094008;28;20488;-74
2023/09/16 12:23:30;;;;;;;3.65;2.35;;;29.40;61.80;;;;;;5093292;28;20057;-74
2023/09/16 12:25:59;;;;;;;3.03;2.33;;;29.50;61.00;;;;;;5093578;28;20099;-73
2023/09/16 12:28:25;;;;;;;5.00;2.40;;;29.20;60.20;;;;;;5093303;28;20028;-75
2023/09/16 12:30:56;;;;;;;9.02;3.00;;;28.90;60.70;;;;;;5093662;28;20024;-75
2023/09/16 12:33:22;;;;;;;5.18;2.47;;;28.70;62.10;;;;;;5093423;28;20109;-76
2023/09/16 12:35:51;;;;;;;8.10;2.40;;;28.60;61.90;;;;;;5093311;28;20107;-73
2023/09/16 12:38:17;;;;;;;6.32;3.00;;;28.50;62.40;;;;;;5093192;28;20028;-77
2023/09/16 12:40:45;;;;;;;4.53;2.50;;;28.70;63.40;;;;;;5092960;28;20073;-74
2023/09/16 12:43:11;;;;;;;6.72;2.90;;;28.60;63.10;;;;;;5093172;28;20028;-74